Terminal Aerodrome Forecast
Issued by NWS

Home | Current Version | Previous Version | Text Only | Print | Product List | Glossary On
Versions: 1 2 3 4 5 6 7 8 9 10 11 12 13 14 15
634
FTUS43 KAPX 260200 AAA
TAFTVC
TAF AMD
KTVC 260200Z 2602/2624 VRB03KT P6SM BKN090
     FM260300 13004KT P6SM VCSH BKN060 OVC090
     FM260400 13004KT P6SM -SHRA SCT040 OVC080
     FM260800 16004KT 6SM BR VCSH BKN060 BKN100
     FM261300 19006KT P6SM SCT040
     FM261900 20007KT P6SM BKN050=

USA.gov is the U.S. government's official web portal to all federal, state and local government web resources and services.